sensor_id;sensor_type;location;lat;lon;timestamp;P1;durP1;ratioP1;P2;durP2;ratioP2
51981;SDS011;37998;53.416;6.730;2023-12-28T00:00:51;6.15;;;4.57;;
51981;SDS011;37998;53.416;6.730;2023-12-28T00:03:17;7.00;;;4.30;;
51981;SDS011;37998;53.416;6.730;2023-12-28T00:05:43;7.07;;;4.10;;
51981;SDS011;37998;53.416;6.730;2023-12-28T00:08:09;9.48;;;4.28;;
51981;SDS011;37998;53.416;6.730;2023-12-28T00:10:38;6.53;;;4.85;;
51981;SDS011;37998;53.416;6.730;2023-12-28T00:13:03;5.38;;;4.03;;
51981;SDS011;37998;53.416;6.730;2023-12-28T00:15:29;6.15;;;4.38;;
51981;SDS011;37998;53.416;6.730;2023-12-28T00:17:55;6.13;;;4.43;;
51981;SDS011;37998;53.416;6.730;2023-12-28T00:20:21;8.43;;;4.25;;
51981;SDS011;37998;53.416;6.730;2023-12-28T00:22:47;5.53;;;4.32;;
51981;SDS011;37998;53.416;6.730;2023-12-28T00:25:13;6.88;;;4.90;;
51981;SDS011;37998;53.416;6.730;2023-12-28T00:27:39;6.88;;;4.40;;
51981;SDS011;37998;53.416;6.730;2023-12-28T00:30:05;7.15;;;4.15;;
51981;SDS011;37998;53.416;6.730;2023-12-28T00:32:31;7.22;;;4.40;;
51981;SDS011;37998;53.416;6.730;2023-12-28T00:34:57;7.50;;;4.10;;
51981;SDS011;37998;53.416;6.730;2023-12-28T00:37:23;5.18;;;4.22;;
51981;SDS011;37998;53.416;6.730;2023-12-28T00:39:49;5.10;;;3.50;;
51981;SDS011;37998;53.416;6.730;2023-12-28T00:42:17;6.03;;;4.40;;
51981;SDS011;37998;53.416;6.730;2023-12-28T00:44:44;5.22;;;3.97;;
51981;SDS011;37998;53.416;6.730;2023-12-28T00:47:10;6.97;;;3.97;;
51981;SDS011;37998;53.416;6.730;2023-12-28T00:49:36;5.78;;;3.95;;
51981;SDS011;37998;53.416;6.730;2023-12-28T00:52:02;9.40;;;4.20;;
51981;SDS011;37998;53.416;6.730;2023-12-28T00:54:29;7.68;;;3.88;;
51981;SDS011;37998;53.416;6.730;2023-12-28T00:56:55;9.23;;;4.45;;
51981;SDS011;37998;53.416;6.730;2023-12-28T00:59:21;8.88;;;4.25;;
51981;SDS011;37998;53.416;6.730;2023-12-28T01:01:47;10.45;;;4.10;;
51981;SDS011;37998;53.416;6.730;2023-12-28T01:04:13;9.60;;;4.13;;
51981;SDS011;37998;53.416;6.730;2023-12-28T01:06:40;8.15;;;4.00;;
51981;SDS011;37998;53.416;6.730;2023-12-28T01:09:06;7.10;;;4.38;;
51981;SDS011;37998;53.416;6.730;2023-12-28T01:11:32;8.77;;;4.50;;
51981;SDS011;37998;53.416;6.730;2023-12-28T01:13:58;6.45;;;3.90;;
51981;SDS011;37998;53.416;6.730;2023-12-28T01:16:24;9.60;;;4.15;;
51981;SDS011;37998;53.416;6.730;2023-12-28T01:18:50;12.18;;;4.07;;
51981;SDS011;37998;53.416;6.730;2023-12-28T01:21:16;13.20;;;4.25;;
51981;SDS011;37998;53.416;6.730;2023-12-28T01:23:42;11.98;;;4.57;;
51981;SDS011;37998;53.416;6.730;2023-12-28T01:26:14;14.43;;;4.38;;
51981;SDS011;37998;53.416;6.730;2023-12-28T01:28:40;11.00;;;3.90;;
51981;SDS011;37998;53.416;6.730;2023-12-28T01:31:06;10.77;;;3.58;;
51981;SDS011;37998;53.416;6.730;2023-12-28T01:33:32;15.27;;;4.00;;
51981;SDS011;37998;53.416;6.730;2023-12-28T01:35:58;10.95;;;3.65;;
51981;SDS011;37998;53.416;6.730;2023-12-28T01:38:24;15.43;;;4.00;;
51981;SDS011;37998;53.416;6.730;2023-12-28T01:40:49;11.23;;;4.15;;
51981;SDS011;37998;53.416;6.730;2023-12-28T01:43:15;16.50;;;4.50;;
51981;SDS011;37998;53.416;6.730;2023-12-28T01:45:41;16.58;;;4.45;;
51981;SDS011;37998;53.416;6.730;2023-12-28T01:48:07;10.95;;;3.20;;
51981;SDS011;37998;53.416;6.730;2023-12-28T01:50:35;12.90;;;3.72;;
51981;SDS011;37998;53.416;6.730;2023-12-28T01:53:01;17.08;;;4.47;;
51981;SDS011;37998;53.416;6.730;2023-12-28T01:55:29;15.52;;;4.13;;
51981;SDS011;37998;53.416;6.730;2023-12-28T01:57:57;17.15;;;3.80;;
51981;SDS011;37998;53.416;6.730;2023-12-28T02:00:23;12.88;;;3.67;;
51981;SDS011;37998;53.416;6.730;2023-12-28T02:02:50;16.17;;;3.28;;
51981;SDS011;37998;53.416;6.730;2023-12-28T02:05:16;13.30;;;3.60;;
51981;SDS011;37998;53.416;6.730;2023-12-28T02:07:43;16.77;;;5.05;;
51981;SDS011;37998;53.416;6.730;2023-12-28T02:10:08;17.30;;;4.25;;
51981;SDS011;37998;53.416;6.730;2023-12-28T02:12:34;14.05;;;4.00;;
51981;SDS011;37998;53.416;6.730;2023-12-28T02:15:00;13.35;;;4.57;;
51981;SDS011;37998;53.416;6.730;2023-12-28T02:17:33;16.30;;;4.35;;
51981;SDS011;37998;53.416;6.730;2023-12-28T02:20:06;18.58;;;4.30;;
51981;SDS011;37998;53.416;6.730;2023-12-28T02:22:33;15.23;;;4.50;;
51981;SDS011;37998;53.416;6.730;2023-12-28T02:25:03;19.38;;;4.82;;
51981;SDS011;37998;53.416;6.730;2023-12-28T02:27:34;12.10;;;4.60;;
51981;SDS011;37998;53.416;6.730;2023-12-28T02:30:02;10.93;;;4.15;;
51981;SDS011;37998;53.416;6.730;2023-12-28T02:35:18;13.93;;;4.45;;
51981;SDS011;37998;53.416;6.730;2023-12-28T02:37:59;15.82;;;4.32;;
51981;SDS011;37998;53.416;6.730;2023-12-28T02:40:30;16.73;;;4.20;;
51981;SDS011;37998;53.416;6.730;2023-12-28T02:43:03;16.50;;;4.35;;
51981;SDS011;37998;53.416;6.730;2023-12-28T02:45:29;12.48;;;4.47;;
51981;SDS011;37998;53.416;6.730;2023-12-28T02:47:55;16.90;;;4.18;;
51981;SDS011;37998;53.416;6.730;2023-12-28T02:50:21;17.08;;;4.05;;
51981;SDS011;37998;53.416;6.730;2023-12-28T02:52:46;11.00;;;3.53;;
51981;SDS011;37998;53.416;6.730;2023-12-28T02:55:14;12.20;;;3.78;;
51981;SDS011;37998;53.416;6.730;2023-12-28T02:57:40;14.30;;;3.88;;
51981;SDS011;37998;53.416;6.730;2023-12-28T03:00:07;14.05;;;3.58;;
51981;SDS011;37998;53.416;6.730;2023-12-28T03:02:36;14.98;;;4.03;;
51981;SDS011;37998;53.416;6.730;2023-12-28T03:05:03;11.27;;;3.50;;
51981;SDS011;37998;53.416;6.730;2023-12-28T03:07:30;18.35;;;4.15;;
51981;SDS011;37998;53.416;6.730;2023-12-28T03:09:56;12.82;;;3.90;;
51981;SDS011;37998;53.416;6.730;2023-12-28T03:12:21;11.70;;;4.20;;
51981;SDS011;37998;53.416;6.730;2023-12-28T03:14:48;12.65;;;3.85;;
51981;SDS011;37998;53.416;6.730;2023-12-28T03:17:14;11.77;;;4.20;;
51981;SDS011;37998;53.416;6.730;2023-12-28T03:19:40;11.85;;;3.35;;
51981;SDS011;37998;53.416;6.730;2023-12-28T03:22:06;19.75;;;4.80;;
51981;SDS011;37998;53.416;6.730;2023-12-28T03:24:32;12.73;;;3.80;;
51981;SDS011;37998;53.416;6.730;2023-12-28T03:26:58;14.40;;;4.45;;
51981;SDS011;37998;53.416;6.730;2023-12-28T03:29:24;10.73;;;3.50;;
51981;SDS011;37998;53.416;6.730;2023-12-28T03:31:50;13.40;;;3.92;;
51981;SDS011;37998;53.416;6.730;2023-12-28T03:34:16;14.35;;;4.40;;
51981;SDS011;37998;53.416;6.730;2023-12-28T03:36:42;10.77;;;3.55;;
51981;SDS011;37998;53.416;6.730;2023-12-28T03:39:08;15.10;;;3.70;;
51981;SDS011;37998;53.416;6.730;2023-12-28T03:41:34;16.83;;;3.75;;
51981;SDS011;37998;53.416;6.730;2023-12-28T03:44:00;10.55;;;4.20;;
51981;SDS011;37998;53.416;6.730;2023-12-28T03:46:26;13.25;;;3.72;;
51981;SDS011;37998;53.416;6.730;2023-12-28T03:48:52;10.90;;;3.65;;
51981;SDS011;37998;53.416;6.730;2023-12-28T03:51:18;14.88;;;4.05;;
51981;SDS011;37998;53.416;6.730;2023-12-28T03:53:44;16.58;;;3.72;;
51981;SDS011;37998;53.416;6.730;2023-12-28T03:56:23;13.63;;;4.45;;
51981;SDS011;37998;53.416;6.730;2023-12-28T03:58:53;16.08;;;3.97;;
51981;SDS011;37998;53.416;6.730;2023-12-28T04:01:19;13.05;;;3.20;;
51981;SDS011;37998;53.416;6.730;2023-12-28T04:03:48;12.85;;;3.60;;
51981;SDS011;37998;53.416;6.730;2023-12-28T04:06:15;13.15;;;4.25;;
51981;SDS011;37998;53.416;6.730;2023-12-28T04:08:41;12.85;;;4.50;;
51981;SDS011;37998;53.416;6.730;2023-12-28T04:11:08;13.15;;;3.88;;
51981;SDS011;37998;53.416;6.730;2023-12-28T04:13:34;13.73;;;3.50;;
51981;SDS011;37998;53.416;6.730;2023-12-28T04:16:01;14.35;;;3.92;;
51981;SDS011;37998;53.416;6.730;2023-12-28T04:18:27;13.32;;;3.67;;
51981;SDS011;37998;53.416;6.730;2023-12-28T04:20:53;14.40;;;3.90;;
51981;SDS011;37998;53.416;6.730;2023-12-28T04:23:19;13.93;;;3.53;;
51981;SDS011;37998;53.416;6.730;2023-12-28T04:25:45;16.10;;;3.78;;
51981;SDS011;37998;53.416;6.730;2023-12-28T04:28:11;11.00;;;3.05;;
51981;SDS011;37998;53.416;6.730;2023-12-28T04:30:37;13.10;;;3.70;;
51981;SDS011;37998;53.416;6.730;2023-12-28T04:33:03;16.25;;;3.50;;
51981;SDS011;37998;53.416;6.730;2023-12-28T04:35:29;16.90;;;3.40;;
51981;SDS011;37998;53.416;6.730;2023-12-28T04:37:56;17.85;;;4.32;;
51981;SDS011;37998;53.416;6.730;2023-12-28T04:40:22;12.10;;;3.35;;
51981;SDS011;37998;53.416;6.730;2023-12-28T04:42:48;21.58;;;4.88;;
51981;SDS011;37998;53.416;6.730;2023-12-28T04:45:14;11.57;;;3.88;;
51981;SDS011;37998;53.416;6.730;2023-12-28T04:47:40;14.70;;;3.33;;
51981;SDS011;37998;53.416;6.730;2023-12-28T04:50:06;10.60;;;3.35;;
51981;SDS011;37998;53.416;6.730;2023-12-28T04:52:32;19.27;;;4.70;;
51981;SDS011;37998;53.416;6.730;2023-12-28T04:54:59;18.33;;;4.10;;
51981;SDS011;37998;53.416;6.730;2023-12-28T04:57:26;15.68;;;3.35;;
51981;SDS011;37998;53.416;6.730;2023-12-28T04:59:53;12.77;;;3.35;;
51981;SDS011;37998;53.416;6.730;2023-12-28T05:02:20;23.23;;;3.90;;
51981;SDS011;37998;53.416;6.730;2023-12-28T05:04:45;14.38;;;3.30;;
51981;SDS011;37998;53.416;6.730;2023-12-28T05:07:11;16.10;;;4.05;;
51981;SDS011;37998;53.416;6.730;2023-12-28T05:09:37;22.65;;;4.38;;
51981;SDS011;37998;53.416;6.730;2023-12-28T05:12:03;16.65;;;4.10;;
51981;SDS011;37998;53.416;6.730;2023-12-28T05:14:30;13.27;;;3.33;;
51981;SDS011;37998;53.416;6.730;2023-12-28T05:16:55;16.40;;;4.45;;
51981;SDS011;37998;53.416;6.730;2023-12-28T05:19:21;20.35;;;3.67;;
51981;SDS011;37998;53.416;6.730;2023-12-28T05:21:47;18.48;;;4.68;;
51981;SDS011;37998;53.416;6.730;2023-12-28T05:24:13;19.48;;;4.28;;
51981;SDS011;37998;53.416;6.730;2023-12-28T05:26:39;15.10;;;3.63;;
51981;SDS011;37998;53.416;6.730;2023-12-28T05:29:04;14.75;;;3.88;;
51981;SDS011;37998;53.416;6.730;2023-12-28T05:31:30;19.25;;;4.03;;
51981;SDS011;37998;53.416;6.730;2023-12-28T05:33:56;14.90;;;3.63;;
51981;SDS011;37998;53.416;6.730;2023-12-28T05:36:24;18.58;;;3.47;;
51981;SDS011;37998;53.416;6.730;2023-12-28T05:38:50;12.18;;;3.67;;
51981;SDS011;37998;53.416;6.730;2023-12-28T05:41:16;15.27;;;3.88;;
51981;SDS011;37998;53.416;6.730;2023-12-28T05:43:42;14.40;;;3.65;;
51981;SDS011;37998;53.416;6.730;2023-12-28T05:46:08;20.08;;;4.22;;
51981;SDS011;37998;53.416;6.730;2023-12-28T05:48:34;17.38;;;3.97;;
51981;SDS011;37998;53.416;6.730;2023-12-28T05:51:00;23.08;;;4.07;;
51981;SDS011;37998;53.416;6.730;2023-12-28T05:53:26;17.58;;;4.15;;
51981;SDS011;37998;53.416;6.730;2023-12-28T05:55:53;16.27;;;3.75;;
51981;SDS011;37998;53.416;6.730;2023-12-28T05:58:19;14.90;;;3.80;;
51981;SDS011;37998;53.416;6.730;2023-12-28T06:00:45;17.23;;;4.22;;
51981;SDS011;37998;53.416;6.730;2023-12-28T06:03:14;19.02;;;4.93;;
51981;SDS011;37998;53.416;6.730;2023-12-28T06:05:40;16.85;;;3.80;;
51981;SDS011;37998;53.416;6.730;2023-12-28T06:08:06;14.85;;;3.53;;
51981;SDS011;37998;53.416;6.730;2023-12-28T06:10:32;23.52;;;3.92;;
51981;SDS011;37998;53.416;6.730;2023-12-28T06:12:58;18.98;;;4.35;;
51981;SDS011;37998;53.416;6.730;2023-12-28T06:15:24;22.10;;;4.47;;
51981;SDS011;37998;53.416;6.730;2023-12-28T06:17:50;18.42;;;4.30;;
51981;SDS011;37998;53.416;6.730;2023-12-28T06:20:15;19.50;;;4.18;;
51981;SDS011;37998;53.416;6.730;2023-12-28T06:22:41;23.60;;;4.40;;
51981;SDS011;37998;53.416;6.730;2023-12-28T06:25:07;19.80;;;4.30;;
51981;SDS011;37998;53.416;6.730;2023-12-28T06:27:36;15.68;;;3.63;;
51981;SDS011;37998;53.416;6.730;2023-12-28T06:30:02;18.52;;;4.28;;
51981;SDS011;37998;53.416;6.730;2023-12-28T06:32:28;17.08;;;3.33;;
51981;SDS011;37998;53.416;6.730;2023-12-28T06:34:54;22.45;;;4.30;;
51981;SDS011;37998;53.416;6.730;2023-12-28T06:37:20;16.42;;;3.90;;
51981;SDS011;37998;53.416;6.730;2023-12-28T06:39:45;19.00;;;4.10;;
51981;SDS011;37998;53.416;6.730;2023-12-28T06:42:11;14.35;;;3.63;;
51981;SDS011;37998;53.416;6.730;2023-12-28T06:44:37;16.92;;;4.90;;
51981;SDS011;37998;53.416;6.730;2023-12-28T06:47:03;25.95;;;4.47;;
51981;SDS011;37998;53.416;6.730;2023-12-28T06:49:29;18.13;;;4.28;;
51981;SDS011;37998;53.416;6.730;2023-12-28T06:51:54;19.10;;;4.03;;
51981;SDS011;37998;53.416;6.730;2023-12-28T06:54:20;19.88;;;4.40;;
51981;SDS011;37998;53.416;6.730;2023-12-28T06:56:46;18.55;;;4.10;;
51981;SDS011;37998;53.416;6.730;2023-12-28T06:59:12;20.58;;;4.18;;
51981;SDS011;37998;53.416;6.730;2023-12-28T07:01:39;18.98;;;4.10;;
51981;SDS011;37998;53.416;6.730;2023-12-28T07:04:05;18.30;;;4.65;;
51981;SDS011;37998;53.416;6.730;2023-12-28T07:06:31;16.88;;;4.75;;
51981;SDS011;37998;53.416;6.730;2023-12-28T07:08:56;22.75;;;4.45;;
51981;SDS011;37998;53.416;6.730;2023-12-28T07:11:22;17.63;;;4.55;;
51981;SDS011;37998;53.416;6.730;2023-12-28T07:13:48;19.67;;;4.40;;
51981;SDS011;37998;53.416;6.730;2023-12-28T07:16:14;17.08;;;4.50;;
51981;SDS011;37998;53.416;6.730;2023-12-28T07:18:41;28.83;;;5.20;;
51981;SDS011;37998;53.416;6.730;2023-12-28T07:21:07;21.52;;;4.45;;
51981;SDS011;37998;53.416;6.730;2023-12-28T07:23:35;22.27;;;4.97;;
51981;SDS011;37998;53.416;6.730;2023-12-28T07:26:02;24.27;;;4.35;;
51981;SDS011;37998;53.416;6.730;2023-12-28T07:28:28;21.95;;;5.43;;
51981;SDS011;37998;53.416;6.730;2023-12-28T07:30:54;24.88;;;4.97;;
51981;SDS011;37998;53.416;6.730;2023-12-28T07:33:20;23.98;;;5.22;;
51981;SDS011;37998;53.416;6.730;2023-12-28T07:35:46;21.75;;;4.70;;
51981;SDS011;37998;53.416;6.730;2023-12-28T07:38:15;14.25;;;3.97;;
51981;SDS011;37998;53.416;6.730;2023-12-28T07:40:41;25.83;;;4.35;;
51981;SDS011;37998;53.416;6.730;2023-12-28T07:43:07;23.33;;;5.45;;
51981;SDS011;37998;53.416;6.730;2023-12-28T07:45:33;18.10;;;4.70;;
51981;SDS011;37998;53.416;6.730;2023-12-28T07:47:59;30.83;;;5.18;;
51981;SDS011;37998;53.416;6.730;2023-12-28T07:50:25;26.45;;;5.72;;
51981;SDS011;37998;53.416;6.730;2023-12-28T07:52:51;24.83;;;5.15;;
51981;SDS011;37998;53.416;6.730;2023-12-28T07:55:17;25.95;;;4.88;;
51981;SDS011;37998;53.416;6.730;2023-12-28T07:57:43;23.75;;;5.70;;
51981;SDS011;37998;53.416;6.730;2023-12-28T08:00:09;26.45;;;5.88;;
51981;SDS011;37998;53.416;6.730;2023-12-28T08:02:35;25.35;;;4.90;;
51981;SDS011;37998;53.416;6.730;2023-12-28T08:05:01;27.48;;;5.00;;
51981;SDS011;37998;53.416;6.730;2023-12-28T08:07:27;23.30;;;5.72;;
51981;SDS011;37998;53.416;6.730;2023-12-28T08:09:53;30.00;;;5.07;;
51981;SDS011;37998;53.416;6.730;2023-12-28T08:12:19;28.85;;;5.97;;
51981;SDS011;37998;53.416;6.730;2023-12-28T08:14:46;29.95;;;5.07;;
51981;SDS011;37998;53.416;6.730;2023-12-28T08:17:12;21.10;;;4.95;;
51981;SDS011;37998;53.416;6.730;2023-12-28T08:19:38;31.65;;;5.53;;
51981;SDS011;37998;53.416;6.730;2023-12-28T08:22:04;26.55;;;5.43;;
51981;SDS011;37998;53.416;6.730;2023-12-28T08:24:30;29.75;;;5.60;;
51981;SDS011;37998;53.416;6.730;2023-12-28T08:26:56;36.65;;;6.72;;
51981;SDS011;37998;53.416;6.730;2023-12-28T08:29:25;30.77;;;6.60;;
51981;SDS011;37998;53.416;6.730;2023-12-28T08:31:51;30.88;;;6.57;;
51981;SDS011;37998;53.416;6.730;2023-12-28T08:34:18;31.20;;;5.75;;
51981;SDS011;37998;53.416;6.730;2023-12-28T08:36:43;20.10;;;5.60;;
51981;SDS011;37998;53.416;6.730;2023-12-28T08:39:09;33.05;;;6.60;;
51981;SDS011;37998;53.416;6.730;2023-12-28T08:41:35;32.97;;;6.45;;
51981;SDS011;37998;53.416;6.730;2023-12-28T08:44:01;27.65;;;6.65;;
51981;SDS011;37998;53.416;6.730;2023-12-28T08:46:27;27.60;;;6.82;;
51981;SDS011;37998;53.416;6.730;2023-12-28T08:48:54;26.25;;;6.22;;
51981;SDS011;37998;53.416;6.730;2023-12-28T08:51:19;31.58;;;6.32;;
51981;SDS011;37998;53.416;6.730;2023-12-28T08:53:45;25.45;;;6.68;;
51981;SDS011;37998;53.416;6.730;2023-12-28T08:56:12;34.53;;;6.82;;
51981;SDS011;37998;53.416;6.730;2023-12-28T08:58:41;29.13;;;6.03;;
51981;SDS011;37998;53.416;6.730;2023-12-28T09:01:07;39.78;;;6.03;;
51981;SDS011;37998;53.416;6.730;2023-12-28T09:03:32;28.83;;;6.15;;
51981;SDS011;37998;53.416;6.730;2023-12-28T09:05:58;30.63;;;5.80;;
51981;SDS011;37998;53.416;6.730;2023-12-28T09:08:24;27.10;;;6.72;;
51981;SDS011;37998;53.416;6.730;2023-12-28T09:10:50;28.08;;;6.47;;
51981;SDS011;37998;53.416;6.730;2023-12-28T09:13:16;32.70;;;7.68;;
51981;SDS011;37998;53.416;6.730;2023-12-28T09:15:45;30.55;;;5.78;;
51981;SDS011;37998;53.416;6.730;2023-12-28T09:18:11;32.78;;;5.78;;
51981;SDS011;37998;53.416;6.730;2023-12-28T09:20:37;29.95;;;6.70;;
51981;SDS011;37998;53.416;6.730;2023-12-28T09:23:02;31.50;;;6.85;;
51981;SDS011;37998;53.416;6.730;2023-12-28T09:25:28;39.88;;;7.25;;
51981;SDS011;37998;53.416;6.730;2023-12-28T09:27:54;36.22;;;8.38;;
51981;SDS011;37998;53.416;6.730;2023-12-28T09:30:20;30.88;;;6.90;;
51981;SDS011;37998;53.416;6.730;2023-12-28T09:32:46;32.42;;;6.70;;
51981;SDS011;37998;53.416;6.730;2023-12-28T09:35:12;37.55;;;7.22;;
51981;SDS011;37998;53.416;6.730;2023-12-28T09:37:38;26.00;;;5.70;;
51981;SDS011;37998;53.416;6.730;2023-12-28T09:40:04;30.88;;;6.38;;
51981;SDS011;37998;53.416;6.730;2023-12-28T09:42:32;31.10;;;6.18;;
51981;SDS011;37998;53.416;6.730;2023-12-28T09:45:05;35.63;;;7.25;;
51981;SDS011;37998;53.416;6.730;2023-12-28T09:47:32;32.25;;;6.85;;
51981;SDS011;37998;53.416;6.730;2023-12-28T09:49:58;28.90;;;5.93;;
51981;SDS011;37998;53.416;6.730;2023-12-28T09:52:24;27.58;;;5.95;;
51981;SDS011;37998;53.416;6.730;2023-12-28T09:54:50;29.90;;;6.90;;
51981;SDS011;37998;53.416;6.730;2023-12-28T09:57:16;30.35;;;6.07;;
51981;SDS011;37998;53.416;6.730;2023-12-28T09:59:42;28.83;;;6.57;;
51981;SDS011;37998;53.416;6.730;2023-12-28T10:02:09;42.75;;;7.05;;
51981;SDS011;37998;53.416;6.730;2023-12-28T10:04:36;26.88;;;6.40;;
51981;SDS011;37998;53.416;6.730;2023-12-28T10:07:03;35.53;;;6.53;;
51981;SDS011;37998;53.416;6.730;2023-12-28T10:09:28;30.90;;;6.20;;
51981;SDS011;37998;53.416;6.730;2023-12-28T10:11:55;30.95;;;6.20;;
51981;SDS011;37998;53.416;6.730;2023-12-28T10:14:22;30.45;;;5.85;;
51981;SDS011;37998;53.416;6.730;2023-12-28T10:16:48;23.77;;;6.40;;
51981;SDS011;37998;53.416;6.730;2023-12-28T10:19:14;27.42;;;7.47;;
51981;SDS011;37998;53.416;6.730;2023-12-28T10:21:40;31.70;;;6.93;;
51981;SDS011;37998;53.416;6.730;2023-12-28T10:24:06;33.33;;;6.50;;
51981;SDS011;37998;53.416;6.730;2023-12-28T10:26:32;29.83;;;6.85;;
51981;SDS011;37998;53.416;6.730;2023-12-28T10:29:01;33.40;;;6.65;;
51981;SDS011;37998;53.416;6.730;2023-12-28T10:31:28;38.88;;;7.90;;
51981;SDS011;37998;53.416;6.730;2023-12-28T10:33:57;33.20;;;6.90;;
51981;SDS011;37998;53.416;6.730;2023-12-28T10:36:25;30.90;;;6.38;;
51981;SDS011;37998;53.416;6.730;2023-12-28T10:38:52;30.73;;;6.30;;
51981;SDS011;37998;53.416;6.730;2023-12-28T10:41:19;30.73;;;6.93;;
51981;SDS011;37998;53.416;6.730;2023-12-28T10:44:03;26.50;;;5.32;;
51981;SDS011;37998;53.416;6.730;2023-12-28T10:46:30;26.75;;;6.30;;
51981;SDS011;37998;53.416;6.730;2023-12-28T10:48:59;27.27;;;6.32;;
51981;SDS011;37998;53.416;6.730;2023-12-28T10:51:35;27.17;;;6.35;;
51981;SDS011;37998;53.416;6.730;2023-12-28T10:56:44;28.95;;;6.13;;
51981;SDS011;37998;53.416;6.730;2023-12-28T11:01:57;28.95;;;6.60;;
51981;SDS011;37998;53.416;6.730;2023-12-28T11:04:42;30.50;;;6.80;;
51981;SDS011;37998;53.416;6.730;2023-12-28T11:07:14;27.83;;;7.00;;
51981;SDS011;37998;53.416;6.730;2023-12-28T11:09:42;27.25;;;6.03;;
51981;SDS011;37998;53.416;6.730;2023-12-28T11:12:09;27.60;;;6.55;;
51981;SDS011;37998;53.416;6.730;2023-12-28T11:14:36;36.00;;;6.88;;
51981;SDS011;37998;53.416;6.730;2023-12-28T11:17:10;23.00;;;5.47;;
51981;SDS011;37998;53.416;6.730;2023-12-28T11:19:36;36.50;;;6.22;;
51981;SDS011;37998;53.416;6.730;2023-12-28T11:22:03;24.25;;;5.35;;
51981;SDS011;37998;53.416;6.730;2023-12-28T11:24:30;28.83;;;5.63;;
51981;SDS011;37998;53.416;6.730;2023-12-28T11:26:57;27.52;;;5.65;;
51981;SDS011;37998;53.416;6.730;2023-12-28T11:29:23;30.67;;;6.68;;
51981;SDS011;37998;53.416;6.730;2023-12-28T11:31:57;30.60;;;5.75;;
51981;SDS011;37998;53.416;6.730;2023-12-28T11:34:33;24.60;;;6.25;;
51981;SDS011;37998;53.416;6.730;2023-12-28T11:37:00;32.22;;;6.72;;
51981;SDS011;37998;53.416;6.730;2023-12-28T11:39:30;29.98;;;5.97;;
51981;SDS011;37998;53.416;6.730;2023-12-28T11:42:03;33.42;;;7.05;;
51981;SDS011;37998;53.416;6.730;2023-12-28T11:44:37;32.83;;;5.88;;
51981;SDS011;37998;53.416;6.730;2023-12-28T11:47:14;21.33;;;5.82;;
51981;SDS011;37998;53.416;6.730;2023-12-28T11:49:41;24.98;;;5.10;;
51981;SDS011;37998;53.416;6.730;2023-12-28T11:52:08;25.45;;;5.20;;
51981;SDS011;37998;53.416;6.730;2023-12-28T11:54:36;31.98;;;5.97;;
51981;SDS011;37998;53.416;6.730;2023-12-28T11:57:02;25.77;;;5.95;;
51981;SDS011;37998;53.416;6.730;2023-12-28T11:59:28;31.17;;;5.97;;
51981;SDS011;37998;53.416;6.730;2023-12-28T12:01:54;26.88;;;5.85;;
51981;SDS011;37998;53.416;6.730;2023-12-28T12:04:20;25.02;;;6.32;;
51981;SDS011;37998;53.416;6.730;2023-12-28T12:06:47;28.50;;;6.35;;
51981;SDS011;37998;53.416;6.730;2023-12-28T12:09:14;27.55;;;5.93;;
51981;SDS011;37998;53.416;6.730;2023-12-28T12:11:40;29.30;;;5.72;;
51981;SDS011;37998;53.416;6.730;2023-12-28T12:14:09;26.88;;;5.25;;
51981;SDS011;37998;53.416;6.730;2023-12-28T12:16:36;21.00;;;4.72;;
51981;SDS011;37998;53.416;6.730;2023-12-28T12:19:05;24.23;;;6.30;;
51981;SDS011;37998;53.416;6.730;2023-12-28T12:21:35;29.27;;;6.10;;
51981;SDS011;37998;53.416;6.730;2023-12-28T12:24:01;28.33;;;5.78;;
51981;SDS011;37998;53.416;6.730;2023-12-28T12:26:28;27.23;;;5.28;;
51981;SDS011;37998;53.416;6.730;2023-12-28T12:28:55;29.83;;;6.43;;
51981;SDS011;37998;53.416;6.730;2023-12-28T12:31:21;31.27;;;6.13;;
51981;SDS011;37998;53.416;6.730;2023-12-28T12:33:47;31.23;;;5.93;;
51981;SDS011;37998;53.416;6.730;2023-12-28T12:36:13;27.55;;;5.07;;
51981;SDS011;37998;53.416;6.730;2023-12-28T12:38:40;26.15;;;5.72;;
51981;SDS011;37998;53.416;6.730;2023-12-28T12:41:05;31.58;;;5.80;;
51981;SDS011;37998;53.416;6.730;2023-12-28T12:43:33;30.73;;;6.72;;
51981;SDS011;37998;53.416;6.730;2023-12-28T12:45:59;25.88;;;6.03;;
51981;SDS011;37998;53.416;6.730;2023-12-28T12:48:25;31.70;;;5.85;;
51981;SDS011;37998;53.416;6.730;2023-12-28T12:50:51;38.03;;;6.30;;
51981;SDS011;37998;53.416;6.730;2023-12-28T12:53:17;27.60;;;5.90;;
51981;SDS011;37998;53.416;6.730;2023-12-28T12:55:43;27.20;;;7.15;;
51981;SDS011;37998;53.416;6.730;2023-12-28T12:58:11;27.77;;;6.78;;
51981;SDS011;37998;53.416;6.730;2023-12-28T13:00:41;27.50;;;7.45;;
51981;SDS011;37998;53.416;6.730;2023-12-28T13:03:08;38.25;;;6.10;;
51981;SDS011;37998;53.416;6.730;2023-12-28T13:05:37;29.63;;;6.75;;
51981;SDS011;37998;53.416;6.730;2023-12-28T13:08:06;27.65;;;6.10;;
51981;SDS011;37998;53.416;6.730;2023-12-28T13:10:31;38.63;;;6.13;;
51981;SDS011;37998;53.416;6.730;2023-12-28T13:12:57;36.63;;;7.45;;
51981;SDS011;37998;53.416;6.730;2023-12-28T13:15:23;26.42;;;5.40;;
51981;SDS011;37998;53.416;6.730;2023-12-28T13:17:49;29.00;;;6.50;;
51981;SDS011;37998;53.416;6.730;2023-12-28T13:20:15;30.48;;;6.18;;
51981;SDS011;37998;53.416;6.730;2023-12-28T13:22:41;25.63;;;6.40;;
51981;SDS011;37998;53.416;6.730;2023-12-28T13:25:07;26.40;;;6.00;;
51981;SDS011;37998;53.416;6.730;2023-12-28T13:27:33;35.25;;;7.50;;
51981;SDS011;37998;53.416;6.730;2023-12-28T13:29:59;28.05;;;6.38;;
51981;SDS011;37998;53.416;6.730;2023-12-28T13:32:25;35.75;;;6.35;;
51981;SDS011;37998;53.416;6.730;2023-12-28T13:34:51;30.83;;;6.43;;
51981;SDS011;37998;53.416;6.730;2023-12-28T13:37:17;38.80;;;7.15;;
51981;SDS011;37998;53.416;6.730;2023-12-28T13:39:43;29.63;;;6.60;;
51981;SDS011;37998;53.416;6.730;2023-12-28T13:42:09;27.92;;;6.40;;
51981;SDS011;37998;53.416;6.730;2023-12-28T13:44:35;26.55;;;6.75;;
51981;SDS011;37998;53.416;6.730;2023-12-28T13:47:01;28.75;;;7.32;;
51981;SDS011;37998;53.416;6.730;2023-12-28T13:49:28;28.60;;;5.88;;
51981;SDS011;37998;53.416;6.730;2023-12-28T13:51:54;26.00;;;6.03;;
51981;SDS011;37998;53.416;6.730;2023-12-28T13:54:20;26.05;;;5.32;;
51981;SDS011;37998;53.416;6.730;2023-12-28T13:56:46;25.45;;;6.28;;
51981;SDS011;37998;53.416;6.730;2023-12-28T13:59:13;27.58;;;5.18;;
51981;SDS011;37998;53.416;6.730;2023-12-28T14:01:39;26.55;;;5.55;;
51981;SDS011;37998;53.416;6.730;2023-12-28T14:04:05;21.70;;;5.63;;
51981;SDS011;37998;53.416;6.730;2023-12-28T14:06:32;21.88;;;5.70;;
51981;SDS011;37998;53.416;6.730;2023-12-28T14:08:58;23.35;;;5.38;;
51981;SDS011;37998;53.416;6.730;2023-12-28T14:11:24;27.67;;;5.65;;
51981;SDS011;37998;53.416;6.730;2023-12-28T14:13:50;29.77;;;5.90;;
51981;SDS011;37998;53.416;6.730;2023-12-28T14:16:16;30.40;;;5.72;;
51981;SDS011;37998;53.416;6.730;2023-12-28T14:18:42;26.25;;;6.43;;
51981;SDS011;37998;53.416;6.730;2023-12-28T14:21:08;26.80;;;5.72;;
51981;SDS011;37998;53.416;6.730;2023-12-28T14:23:38;23.95;;;6.22;;
51981;SDS011;37998;53.416;6.730;2023-12-28T14:26:12;26.38;;;5.47;;
51981;SDS011;37998;53.416;6.730;2023-12-28T14:28:42;32.20;;;6.00;;
51981;SDS011;37998;53.416;6.730;2023-12-28T14:31:09;32.47;;;7.38;;
51981;SDS011;37998;53.416;6.730;2023-12-28T14:33:36;27.40;;;5.47;;
51981;SDS011;37998;53.416;6.730;2023-12-28T14:36:05;21.83;;;5.80;;
51981;SDS011;37998;53.416;6.730;2023-12-28T14:38:54;24.60;;;4.60;;
51981;SDS011;37998;53.416;6.730;2023-12-28T14:41:20;21.98;;;4.97;;